Time;durP1;ratioP1;P1;durP2;ratioP2;P2;SDS_P1;SDS_P2;PMS_P1;PMS_P2;Temp;Humidity;BMP_temperature;BMP_pressure;BME280_temperature;BME280_humidity;BME280_pressure;Samples;Min_cycle;Max_cycle;Signal;HPM_P1;HPM_P2
2022/05/10 00:01:08;;;;;;;5.70;4.20;;;13.90;66.50;;;;;;1909255;75;21172;-57
2022/05/10 00:03:39;;;;;;;8.53;4.37;;;13.90;67.10;;;;;;1906512;75;21070;-57
2022/05/10 00:06:09;;;;;;;7.75;4.80;;;13.90;67.30;;;;;;1903980;75;21094;-56
2022/05/10 00:08:40;;;;;;;6.22;4.50;;;13.90;68.00;;;;;;1904024;75;21066;-56
2022/05/10 00:11:09;;;;;;;10.43;5.53;;;13.90;67.60;;;;;;1904091;75;21058;-56
2022/05/10 00:13:39;;;;;;;6.60;4.90;;;13.90;68.10;;;;;;1904171;75;21074;-57
2022/05/10 00:16:19;;;;;;;7.67;4.30;;;13.90;68.90;;;;;;1904052;75;21082;-56
2022/05/10 00:18:46;;;;;;;8.18;4.80;;;13.90;69.40;;;;;;1903048;75;21054;-56
2022/05/10 00:21:18;;;;;;;8.68;5.03;;;14.00;69.40;;;;;;1904041;74;21031;-57
2022/05/10 00:23:47;;;;;;;9.75;4.42;;;14.00;69.40;;;;;;1904118;75;20999;-56
2022/05/10 00:26:17;;;;;;;5.85;4.65;;;14.00;69.90;;;;;;1904141;75;21085;-56
2022/05/10 00:28:46;;;;;;;6.50;4.60;;;14.00;70.30;;;;;;1904054;75;21027;-56
2022/05/10 00:31:17;;;;;;;7.40;4.85;;;14.00;70.40;;;;;;1904078;75;21430;-56
2022/05/10 00:33:47;;;;;;;7.03;4.62;;;14.00;70.70;;;;;;1904098;75;21023;-56
2022/05/10 00:36:17;;;;;;;10.35;4.58;;;14.00;70.30;;;;;;1904118;75;21035;-56
2022/05/10 00:38:47;;;;;;;7.08;4.42;;;14.00;70.40;;;;;;1904065;75;21031;-56
2022/05/10 00:41:34;;;;;;;8.13;5.47;;;14.00;70.80;;;;;;1904142;75;21098;-56
2022/05/10 00:44:12;;;;;;;7.95;5.35;;;14.00;70.70;;;;;;1904340;75;21477;-57
2022/05/10 00:46:44;;;;;;;8.25;5.42;;;14.00;70.50;;;;;;1903943;75;21030;-56
2022/05/10 00:49:25;;;;;;;7.58;5.12;;;14.10;70.80;;;;;;1904093;75;21023;-56
2022/05/10 00:52:02;;;;;;;8.58;4.92;;;14.10;71.10;;;;;;1901382;75;21555;-57
2022/05/10 00:54:52;;;;;;;5.58;4.60;;;14.10;71.30;;;;;;1904218;75;21019;-56
2022/05/10 00:57:39;;;;;;;8.20;5.25;;;14.10;71.80;;;;;;1904036;75;21105;-57
2022/05/10 01:00:11;;;;;;;9.63;4.62;;;14.10;71.80;;;;;;1904038;75;21630;-56
2022/05/10 01:02:49;;;;;;;6.80;4.95;;;14.10;71.80;;;;;;1904257;75;21020;-56
2022/05/10 01:05:24;;;;;;;8.15;4.92;;;14.10;72.60;;;;;;1903008;75;21547;-56
2022/05/10 01:08:03;;;;;;;10.48;5.37;;;14.10;72.00;;;;;;1898161;75;21152;-56
2022/05/10 01:10:38;;;;;;;6.80;4.80;;;14.10;72.20;;;;;;1903639;75;21133;-56
2022/05/10 01:13:19;;;;;;;7.42;5.12;;;14.10;72.30;;;;;;1904226;75;20991;-56
2022/05/10 01:16:09;;;;;;;8.15;5.90;;;14.10;72.80;;;;;;1893345;75;21164;-56
2022/05/10 01:18:40;;;;;;;13.48;6.95;;;14.20;73.40;;;;;;1904216;75;21515;-56
2022/05/10 01:21:34;;;;;;;12.35;7.33;;;14.20;73.60;;;;;;1904086;75;21152;-56
2022/05/10 01:24:43;;;;;;;11.03;6.42;;;14.10;74.30;;;;;;1903285;75;21498;-56
2022/05/10 01:27:33;;;;;;;10.88;7.65;;;14.10;74.90;;;;;;1904108;75;21046;-56
2022/05/10 01:30:14;;;;;;;10.13;6.78;;;14.10;75.40;;;;;;1903793;75;21030;-56
2022/05/10 01:36:02;;;;;;;13.00;8.15;;;14.10;75.90;;;;;;1904178;75;21105;-56
2022/05/10 01:38:43;;;;;;;12.85;8.20;;;14.10;75.20;;;;;;1904124;75;21023;-56
2022/05/10 01:41:49;;;;;;;16.85;8.55;;;14.10;76.00;;;;;;1904128;75;21547;-56
2022/05/10 01:44:32;;;;;;;16.62;8.48;;;14.10;75.70;;;;;;1904166;75;21133;-56
2022/05/10 01:47:07;;;;;;;12.30;8.65;;;14.10;76.60;;;;;;1903731;75;21109;-56
2022/05/10 01:49:42;;;;;;;12.47;8.40;;;14.10;76.00;;;;;;1904187;75;21089;-56
2022/05/10 01:52:21;;;;;;;;;;;14.00;76.40;;;;;;1906800;74;21101;-56
2022/05/10 01:55:08;;;;;;;14.05;8.00;;;14.10;77.00;;;;;;1903204;75;20091;-56
2022/05/10 01:57:38;;;;;;;14.50;10.35;;;14.10;75.70;;;;;;1902880;75;21043;-57
2022/05/10 02:00:13;;;;;;;14.87;8.20;;;14.00;76.70;;;;;;1904086;74;21031;-56
2022/05/10 02:02:47;;;;;;;17.65;11.18;;;14.00;76.50;;;;;;1902734;75;21007;-56
2022/05/10 02:05:21;;;;;;;19.70;12.20;;;14.00;77.70;;;;;;1903941;75;21071;-56
2022/05/10 02:07:53;;;;;;;23.52;12.78;;;14.00;77.60;;;;;;1904092;75;21112;-56
2022/05/10 02:10:28;;;;;;;37.35;17.65;;;14.00;78.20;;;;;;1903940;75;21141;-56
2022/05/10 02:13:09;;;;;;;33.38;15.65;;;13.90;80.10;;;;;;1904144;75;21031;-56
2022/05/10 02:15:44;;;;;;;26.48;16.20;;;13.80;82.20;;;;;;1903293;75;21493;-56
2022/05/10 02:18:18;;;;;;;21.15;13.80;;;13.80;81.90;;;;;;1854465;77;21102;-56
2022/05/10 02:20:53;;;;;;;21.50;14.28;;;13.80;83.60;;;;;;1913428;75;21027;-56
2022/05/10 02:23:41;;;;;;;13.60;10.00;;;13.70;83.10;;;;;;1825183;78;21116;-56
2022/05/10 02:26:13;;;;;;;25.27;13.60;;;13.70;85.20;;;;;;1913538;75;21080;-56
2022/05/10 02:29:07;;;;;;;21.37;13.88;;;13.60;83.00;;;;;;1912183;75;21030;-57
2022/05/10 02:34:44;;;;;;;22.95;12.63;;;13.60;81.70;;;;;;1825610;77;21143;-56
2022/05/10 02:37:14;;;;;;;22.95;12.53;;;13.60;82.40;;;;;;1899754;75;21027;-56
2022/05/10 02:39:43;;;;;;;22.27;13.08;;;13.60;81.20;;;;;;1913411;75;21101;-56
2022/05/10 02:42:15;;;;;;;22.30;13.53;;;13.70;81.30;;;;;;1913401;74;21050;-56
2022/05/10 02:44:45;;;;;;;24.72;13.48;;;13.70;81.50;;;;;;1913455;75;21116;-56
2022/05/10 02:47:14;;;;;;;22.02;13.98;;;13.70;81.60;;;;;;1913635;75;21500;-57
2022/05/10 02:49:43;;;;;;;21.52;12.35;;;13.70;83.00;;;;;;1913546;75;21104;-57
2022/05/10 02:52:13;;;;;;;19.80;12.93;;;13.70;82.60;;;;;;1913409;75;21034;-56
2022/05/10 02:54:42;;;;;;;16.52;11.20;;;13.70;82.20;;;;;;1913427;75;21067;-57
2022/05/10 02:57:12;;;;;;;18.70;10.93;;;13.70;82.80;;;;;;1913370;75;21039;-56
2022/05/10 02:59:41;;;;;;;21.02;12.20;;;13.60;83.30;;;;;;1913448;75;21031;-57
2022/05/10 03:02:19;;;;;;;18.32;11.08;;;13.60;82.10;;;;;;1913355;75;21031;-56
2022/05/10 03:04:53;;;;;;;19.57;11.10;;;13.60;81.70;;;;;;1913339;75;21156;-57
2022/05/10 03:07:23;;;;;;;16.12;10.70;;;13.60;82.20;;;;;;1913526;74;21089;-56
2022/05/10 03:09:53;;;;;;;15.32;10.68;;;13.60;82.50;;;;;;1913419;75;21081;-56
2022/05/10 03:12:22;;;;;;;16.07;9.63;;;13.60;83.20;;;;;;1913449;75;21141;-56
2022/05/10 03:14:54;;;;;;;17.02;7.58;;;13.50;82.80;;;;;;1913462;75;21113;-57
2022/05/10 03:17:24;;;;;;;9.93;6.62;;;13.50;82.70;;;;;;1913442;75;21031;-56
2022/05/10 03:19:53;;;;;;;10.43;6.70;;;13.50;82.50;;;;;;1913389;74;21003;-57
2022/05/10 03:22:22;;;;;;;9.15;6.28;;;13.40;81.80;;;;;;1913410;74;21027;-56
2022/05/10 03:24:51;;;;;;;9.35;6.20;;;13.40;81.60;;;;;;1913420;75;21542;-56
2022/05/10 03:27:21;;;;;;;9.38;5.42;;;13.40;81.60;;;;;;1913525;75;21019;-56
2022/05/10 03:29:50;;;;;;;7.03;5.15;;;13.40;81.60;;;;;;1913460;74;21715;-56
2022/05/10 03:32:20;;;;;;;7.60;4.75;;;13.40;81.50;;;;;;1913452;75;21026;-56
2022/05/10 03:34:55;;;;;;;7.75;5.20;;;13.40;81.20;;;;;;1913387;75;21046;-56
2022/05/10 03:37:26;;;;;;;5.78;4.08;;;13.40;81.10;;;;;;1913682;75;21113;-57
2022/05/10 03:39:55;;;;;;;4.87;3.80;;;13.40;81.00;;;;;;1913366;75;21038;-57
2022/05/10 03:42:25;;;;;;;6.08;3.87;;;13.40;80.60;;;;;;1913466;75;21030;-57
2022/05/10 03:44:55;;;;;;;5.72;3.33;;;13.40;80.40;;;;;;1913424;75;21105;-57
2022/05/10 03:47:26;;;;;;;6.58;3.60;;;13.40;80.10;;;;;;1913518;75;21112;-57
2022/05/10 03:49:56;;;;;;;5.08;2.83;;;13.40;79.90;;;;;;1913448;75;21019;-56
2022/05/10 03:52:26;;;;;;;8.63;3.55;;;13.40;79.70;;;;;;1913584;75;21019;-56
2022/05/10 03:54:55;;;;;;;6.20;3.40;;;13.50;79.50;;;;;;1913447;74;21031;-56
2022/05/10 03:57:24;;;;;;;3.92;2.50;;;13.50;79.30;;;;;;1913447;75;21051;-56
2022/05/10 03:59:53;;;;;;;2.85;2.27;;;13.60;79.30;;;;;;1913470;75;21047;-56
2022/05/10 04:02:23;;;;;;;1.92;1.40;;;13.60;79.00;;;;;;1913433;75;21011;-56
2022/05/10 04:04:52;;;;;;;5.62;2.50;;;13.70;77.40;;;;;;1913436;75;21030;-56
2022/05/10 04:07:22;;;;;;;3.90;2.05;;;13.70;77.40;;;;;;1931297;74;21117;-56
2022/05/10 04:09:51;;;;;;;3.50;2.22;;;13.80;77.20;;;;;;1931200;74;21136;-56
2022/05/10 04:12:21;;;;;;;4.35;1.80;;;13.80;76.70;;;;;;1931252;74;21026;-56
2022/05/10 04:14:50;;;;;;;2.70;1.77;;;13.80;76.90;;;;;;1931257;74;21065;-56
2022/05/10 04:17:19;;;;;;;3.20;2.40;;;13.80;76.90;;;;;;1931293;74;21077;-56
2022/05/10 04:19:49;;;;;;;2.62;1.90;;;13.80;76.50;;;;;;1931402;74;21073;-57
2022/05/10 04:22:18;;;;;;;4.53;1.87;;;13.80;75.90;;;;;;1931410;74;21038;-56
2022/05/10 04:24:48;;;;;;;3.77;2.02;;;13.80;75.50;;;;;;1931396;74;21102;-56
2022/05/10 04:27:17;;;;;;;3.87;2.33;;;13.70;75.20;;;;;;1931393;74;21026;-57
2022/05/10 04:29:47;;;;;;;3.08;1.80;;;13.70;75.50;;;;;;1931351;74;21030;-56
2022/05/10 04:32:16;;;;;;;2.17;1.85;;;13.80;75.50;;;;;;1931400;74;21100;-56
2022/05/10 04:34:46;;;;;;;2.30;2.00;;;13.90;75.10;;;;;;1931451;74;21096;-56
2022/05/10 04:37:15;;;;;;;4.70;1.77;;;14.00;75.10;;;;;;1855737;77;21172;-57
2022/05/10 04:42:32;;;;;;;3.15;1.32;;;14.20;72.60;;;;;;1931486;74;21095;-57
2022/05/10 04:45:01;;;;;;;1.95;1.57;;;14.20;72.40;;;;;;1931464;74;21092;-57
2022/05/10 04:47:31;;;;;;;2.08;1.45;;;14.30;72.60;;;;;;1931415;74;21097;-57
2022/05/10 04:50:01;;;;;;;2.40;1.52;;;14.40;72.10;;;;;;1931494;74;21131;-57
2022/05/10 04:52:30;;;;;;;2.52;1.70;;;14.50;71.60;;;;;;1931498;74;21046;-57
2022/05/10 04:54:59;;;;;;;4.62;1.57;;;14.50;70.50;;;;;;1931493;74;21147;-57
2022/05/10 04:57:30;;;;;;;2.37;1.50;;;14.40;69.40;;;;;;1931204;74;21613;-57
2022/05/10 05:00:00;;;;;;;3.33;2.47;;;14.40;70.70;;;;;;1931419;74;21151;-57
2022/05/10 05:02:29;;;;;;;2.55;1.80;;;14.40;71.10;;;;;;1931352;74;21057;-56
2022/05/10 05:04:59;;;;;;;2.65;1.77;;;14.50;70.30;;;;;;1931492;74;21034;-57
2022/05/10 05:07:28;;;;;;;4.03;1.82;;;14.60;70.10;;;;;;1923805;74;21116;-57
2022/05/10 05:09:57;;;;;;;2.87;1.95;;;14.70;70.50;;;;;;1921728;75;21081;-57
2022/05/10 05:12:27;;;;;;;2.25;1.40;;;14.80;70.30;;;;;;1921664;75;21088;-57
2022/05/10 05:14:56;;;;;;;5.67;2.45;;;14.90;70.10;;;;;;1921684;75;21030;-57
2022/05/10 05:17:27;;;;;;;8.28;2.60;;;15.10;69.60;;;;;;1921722;75;21046;-57
2022/05/10 05:19:56;;;;;;;2.42;1.80;;;15.20;69.70;;;;;;1921607;75;21081;-56
2022/05/10 05:22:26;;;;;;;2.72;2.02;;;15.30;68.50;;;;;;1921717;75;21023;-57
2022/05/10 05:24:56;;;;;;;3.50;1.50;;;15.50;68.70;;;;;;1921674;75;21469;-57
2022/05/10 05:27:25;;;;;;;4.65;2.60;;;15.50;68.20;;;;;;1921850;75;21034;-57
2022/05/10 05:29:55;;;;;;;3.67;2.10;;;15.50;66.90;;;;;;1921842;75;21026;-56
2022/05/10 05:32:29;;;;;;;2.37;1.80;;;15.50;67.60;;;;;;1921840;75;21035;-57
2022/05/10 05:35:00;;;;;;;2.15;1.70;;;15.60;67.00;;;;;;1921936;75;21042;-57
2022/05/10 05:37:35;;;;;;;6.05;2.60;;;15.60;66.80;;;;;;1921732;75;21027;-57
2022/05/10 05:40:10;;;;;;;16.62;2.72;;;15.70;67.00;;;;;;1921871;75;21100;-57
2022/05/10 05:42:40;;;;;;;2.85;1.60;;;15.90;66.50;;;;;;1920839;75;21074;-56
2022/05/10 05:45:12;;;;;;;2.00;1.80;;;15.90;65.80;;;;;;1921723;75;21054;-57
2022/05/10 05:47:42;;;;;;;1.98;1.35;;;16.00;65.70;;;;;;1921753;75;21469;-56
2022/05/10 05:50:14;;;;;;;2.42;1.70;;;16.10;64.00;;;;;;1921695;75;21049;-57
2022/05/10 05:52:44;;;;;;;3.08;1.87;;;16.10;64.50;;;;;;1921838;75;21042;-57
2022/05/10 05:55:14;;;;;;;3.10;1.80;;;16.20;64.60;;;;;;1921612;75;21104;-56
2022/05/10 05:57:44;;;;;;;2.47;1.72;;;16.20;63.40;;;;;;1921647;75;21120;-57
2022/05/10 06:00:17;;;;;;;2.47;1.55;;;16.30;63.30;;;;;;1921538;75;21057;-57
2022/05/10 06:02:45;;;;;;;3.67;1.25;;;16.30;61.00;;;;;;1921651;75;21067;-57
2022/05/10 06:05:15;;;;;;;1.65;1.27;;;16.40;61.00;;;;;;1921644;75;21007;-57
2022/05/10 06:07:44;;;;;;;1.22;1.12;;;16.40;59.60;;;;;;1915987;75;21054;-57
2022/05/10 06:10:14;;;;;;;2.17;1.32;;;16.40;58.60;;;;;;1913378;75;21007;-57
2022/05/10 06:12:44;;;;;;;2.15;1.62;;;16.40;55.40;;;;;;1913488;75;21027;-57
2022/05/10 06:15:17;;;;;;;4.95;1.62;;;16.40;57.20;;;;;;1913409;75;21031;-56
2022/05/10 06:17:48;;;;;;;2.08;1.35;;;16.30;58.30;;;;;;1913413;75;21089;-58
2022/05/10 06:20:20;;;;;;;1.52;1.20;;;16.40;57.60;;;;;;1913464;75;20999;-57
2022/05/10 06:22:49;;;;;;;2.47;1.50;;;16.40;55.90;;;;;;1913400;75;21163;-57
2022/05/10 06:25:21;;;;;;;2.87;1.22;;;16.50;56.10;;;;;;1913475;75;21433;-55
2022/05/10 06:27:52;;;;;;;6.05;1.92;;;16.50;56.00;;;;;;1913394;75;21022;-56
2022/05/10 06:30:22;;;;;;;1.62;1.42;;;16.60;57.00;;;;;;1913539;75;21035;-56
2022/05/10 06:32:52;;;;;;;3.35;1.62;;;16.70;57.00;;;;;;1913395;75;21096;-55
2022/05/10 06:35:21;;;;;;;3.25;2.15;;;16.80;56.50;;;;;;1913348;75;21164;-56
2022/05/10 06:40:39;;;;;;;4.25;1.50;;;16.90;55.00;;;;;;1913319;75;21046;-55
2022/05/10 06:43:09;;;;;;;2.60;1.27;;;17.00;54.30;;;;;;1913563;75;21097;-56
2022/05/10 06:45:40;;;;;;;4.20;1.75;;;17.00;53.80;;;;;;1913429;75;21027;-55
2022/05/10 06:48:10;;;;;;;2.47;1.45;;;17.00;53.70;;;;;;1913471;75;21023;-56
2022/05/10 06:50:41;;;;;;;3.40;1.47;;;17.00;53.40;;;;;;1913439;75;21085;-56
2022/05/10 06:53:11;;;;;;;2.00;1.40;;;17.10;54.20;;;;;;1913509;74;21030;-56
2022/05/10 06:55:42;;;;;;;3.27;1.50;;;17.10;53.40;;;;;;1913349;75;21010;-56
2022/05/10 06:58:11;;;;;;;1.82;1.45;;;17.10;53.90;;;;;;1913379;75;21011;-56
2022/05/10 07:00:42;;;;;;;2.20;1.75;;;17.00;53.70;;;;;;1913393;75;21078;-55
2022/05/10 07:03:16;;;;;;;21.77;3.37;;;17.00;53.70;;;;;;1913345;75;21094;-56
2022/05/10 07:05:47;;;;;;;2.60;1.50;;;17.00;53.00;;;;;;1913635;75;21109;-56
2022/05/10 07:08:16;;;;;;;1.65;1.02;;;17.00;52.80;;;;;;1918800;75;21131;-56
2022/05/10 07:10:46;;;;;;;1.72;1.52;;;17.00;51.20;;;;;;1921645;74;21079;-56
2022/05/10 07:13:20;;;;;;;7.17;1.75;;;17.10;51.00;;;;;;1921631;75;21097;-55
2022/05/10 07:15:50;;;;;;;2.92;1.50;;;17.20;48.70;;;;;;1921757;75;21027;-55
2022/05/10 07:18:20;;;;;;;3.22;1.60;;;17.20;50.10;;;;;;1921742;75;21096;-56
2022/05/10 07:20:50;;;;;;;1.30;1.10;;;17.30;48.70;;;;;;1921712;75;21163;-56
2022/05/10 07:23:25;;;;;;;2.25;1.30;;;17.30;46.70;;;;;;1921551;75;21027;-56
2022/05/10 07:25:55;;;;;;;5.35;1.90;;;17.30;48.30;;;;;;1921625;75;21200;-56
2022/05/10 07:28:25;;;;;;;2.90;1.82;;;17.40;49.00;;;;;;1921750;75;21081;-56
2022/05/10 07:30:56;;;;;;;2.45;1.42;;;17.50;48.70;;;;;;1921836;75;21081;-56
2022/05/10 07:33:26;;;;;;;1.65;1.20;;;17.60;48.10;;;;;;1921819;75;21002;-56
2022/05/10 07:38:43;;;;;;;3.05;1.20;;;17.80;47.30;;;;;;1921679;75;21042;-56
2022/05/10 07:41:12;;;;;;;3.72;1.30;;;17.80;45.50;;;;;;1921754;75;21026;-56
2022/05/10 07:43:42;;;;;;;2.58;1.32;;;17.80;46.60;;;;;;1921602;75;21030;-56
2022/05/10 07:46:11;;;;;;;6.70;2.02;;;17.70;44.70;;;;;;1921756;75;21049;-56
2022/05/10 07:48:40;;;;;;;2.75;1.65;;;17.70;45.90;;;;;;1921726;75;21070;-56
2022/05/10 07:51:10;;;;;;;1.82;1.32;;;17.80;45.60;;;;;;1921746;75;21092;-56
2022/05/10 07:53:41;;;;;;;6.10;1.87;;;17.80;45.00;;;;;;1921710;75;21085;-56
2022/05/10 07:56:10;;;;;;;7.12;1.75;;;17.80;45.80;;;;;;1921627;75;21472;-56
2022/05/10 07:58:40;;;;;;;3.83;1.50;;;17.80;46.10;;;;;;1921666;75;21035;-57
2022/05/10 08:01:09;;;;;;;7.70;1.42;;;17.80;46.30;;;;;;1921584;75;21027;-56
2022/05/10 08:03:39;;;;;;;2.60;1.30;;;17.90;44.90;;;;;;1921996;75;21027;-56
2022/05/10 08:06:08;;;;;;;4.53;1.80;;;18.00;43.50;;;;;;1921747;75;21091;-56
2022/05/10 08:08:38;;;;;;;4.20;1.65;;;18.00;44.90;;;;;;1917304;74;21034;-56
2022/05/10 08:11:08;;;;;;;2.52;1.27;;;18.00;44.30;;;;;;1913519;74;21058;-56
2022/05/10 08:13:37;;;;;;;1.80;1.37;;;18.00;44.20;;;;;;1913571;75;21125;-56
2022/05/10 08:16:09;;;;;;;2.25;1.40;;;18.00;43.70;;;;;;1913538;75;21043;-56
2022/05/10 08:18:43;;;;;;;1.80;1.40;;;17.90;44.50;;;;;;1913564;75;21023;-56
2022/05/10 08:21:12;;;;;;;4.00;1.50;;;17.90;44.30;;;;;;1913511;75;21026;-57
2022/05/10 08:23:42;;;;;;;2.55;1.10;;;17.70;43.80;;;;;;1913343;75;21074;-56
2022/05/10 08:26:11;;;;;;;2.30;1.47;;;17.70;44.50;;;;;;1913516;75;21120;-56
2022/05/10 08:28:40;;;;;;;1.52;1.40;;;17.70;44.90;;;;;;1913371;75;21027;-56
2022/05/10 08:31:10;;;;;;;1.90;1.50;;;17.70;44.60;;;;;;1913536;75;21096;-57
2022/05/10 08:33:42;;;;;;;5.25;1.95;;;17.70;45.50;;;;;;1913379;75;21027;-56
2022/05/10 08:36:11;;;;;;;4.75;1.50;;;17.70;46.00;;;;;;1913474;75;21513;-56
2022/05/10 08:38:41;;;;;;;2.62;1.72;;;17.80;46.00;;;;;;1913364;75;21050;-57
2022/05/10 08:41:25;;;;;;;2.00;1.80;;;17.80;46.10;;;;;;1913507;75;21051;-56
2022/05/10 08:44:03;;;;;;;3.10;1.40;;;17.80;45.70;;;;;;1913429;75;21089;-56
2022/05/10 08:46:41;;;;;;;3.87;1.50;;;17.80;45.90;;;;;;1913354;75;21513;-56
2022/05/10 08:49:22;;;;;;;8.28;3.08;;;17.90;44.70;;;;;;1913606;75;21082;-56
2022/05/10 08:51:53;;;;;;;3.70;1.50;;;18.00;45.30;;;;;;1913269;75;21070;-56
2022/05/10 08:54:24;;;;;;;2.08;1.62;;;17.90;44.50;;;;;;1913380;74;21031;-56
2022/05/10 08:56:56;;;;;;;3.22;2.15;;;17.90;43.70;;;;;;1913060;75;21051;-56
2022/05/10 08:59:34;;;;;;;1.82;1.30;;;17.80;44.20;;;;;;1913479;75;21003;-57
2022/05/10 09:02:06;;;;;;;1.65;1.22;;;17.70;44.60;;;;;;1862448;75;21039;-56
2022/05/10 09:04:41;;;;;;;2.40;1.45;;;17.70;44.80;;;;;;1913051;75;21088;-56
2022/05/10 09:07:18;;;;;;;4.78;2.50;;;17.80;43.60;;;;;;1913681;75;21026;-56
2022/05/10 09:10:02;;;;;;;2.33;1.60;;;17.90;44.70;;;;;;1913602;74;21481;-56
2022/05/10 09:12:36;;;;;;;;;;;18.10;43.60;;;;;;1916391;74;21112;-56
2022/05/10 09:15:07;;;;;;;4.47;1.47;;;18.20;42.70;;;;;;1912991;75;20108;-56
2022/05/10 09:17:37;;;;;;;1.67;1.30;;;18.20;42.10;;;;;;1913421;75;21019;-56
2022/05/10 09:20:08;;;;;;;3.80;2.00;;;18.20;42.70;;;;;;1913427;75;21081;-56
2022/05/10 09:22:46;;;;;;;2.75;1.25;;;18.30;42.20;;;;;;1913493;75;21035;-56
2022/05/10 09:25:41;;;;;;;3.58;1.77;;;18.40;42.80;;;;;;1913568;75;21043;-56
2022/05/10 09:28:13;;;;;;;4.10;1.42;;;18.40;42.60;;;;;;1913704;75;21007;-56
2022/05/10 09:34:45;;;;;;;3.35;1.37;;;18.40;42.10;;;;;;1908026;75;21066;-56
2022/05/10 09:36:10;;;;;;;3.35;1.75;;;18.30;41.60;;;;;;1913538;75;21057;-58
2022/05/10 09:38:47;;;;;;;1.92;1.35;;;18.20;42.20;;;;;;1913475;75;21096;-58
2022/05/10 09:41:34;;;;;;;2.62;1.50;;;18.30;41.70;;;;;;1913419;75;21092;-57
2022/05/10 09:44:15;;;;;;;1.75;1.15;;;18.30;41.60;;;;;;1891307;75;21031;-57
2022/05/10 09:46:44;;;;;;;4.90;1.42;;;18.40;42.00;;;;;;1913002;75;21026;-56
2022/05/10 09:49:34;;;;;;;1.72;1.47;;;18.40;41.60;;;;;;1913381;75;21027;-56
2022/05/10 09:52:05;;;;;;;1.85;1.22;;;18.40;40.40;;;;;;1913492;75;21101;-56
2022/05/10 09:54:42;;;;;;;3.67;1.42;;;18.30;40.90;;;;;;1913366;75;21096;-56
2022/05/10 09:57:14;;;;;;;3.45;1.37;;;18.30;41.30;;;;;;1913372;75;21069;-56
2022/05/10 09:59:47;;;;;;;1.72;1.20;;;18.30;41.20;;;;;;1910954;75;21484;-57
2022/05/10 10:02:32;;;;;;;2.67;1.05;;;18.30;40.30;;;;;;1913362;74;21043;-56
2022/05/10 10:05:22;;;;;;;3.07;1.47;;;18.40;40.00;;;;;;1913557;75;21156;-57
2022/05/10 10:07:54;;;;;;;2.40;1.40;;;18.40;40.00;;;;;;1913503;75;21093;-56
2022/05/10 10:10:33;;;;;;;3.40;1.60;;;18.40;40.00;;;;;;1919938;74;21050;-56
2022/05/10 10:13:21;;;;;;;3.12;1.50;;;18.30;38.90;;;;;;1921652;75;21089;-56
2022/05/10 10:15:51;;;;;;;4.92;1.50;;;18.20;39.20;;;;;;1921721;75;21121;-56
2022/05/10 10:18:47;;;;;;;2.77;1.50;;;18.10;40.00;;;;;;1921758;75;21042;-56
2022/05/10 10:21:19;;;;;;;4.17;1.95;;;18.20;40.40;;;;;;1921788;75;21034;-56
2022/05/10 10:23:57;;;;;;;3.67;1.45;;;18.30;40.60;;;;;;1919119;75;21493;-56
2022/05/10 10:26:35;;;;;;;1.98;1.55;;;18.40;39.20;;;;;;1921713;75;21492;-56
2022/05/10 10:29:32;;;;;;;4.28;1.55;;;18.40;39.40;;;;;;1920506;75;21053;-56
2022/05/10 10:32:07;;;;;;;2.00;1.30;;;18.60;38.00;;;;;;1921593;75;21058;-56
2022/05/10 10:34:45;;;;;;;3.95;1.60;;;18.70;37.60;;;;;;1921798;75;21096;-56
2022/05/10 10:37:39;;;;;;;2.40;1.77;;;18.70;37.80;;;;;;1921852;75;21038;-56
2022/05/10 10:40:30;;;;;;;3.45;1.42;;;18.70;38.00;;;;;;1921779;75;21019;-57
2022/05/10 10:43:11;;;;;;;2.83;1.50;;;18.70;37.50;;;;;;1921781;75;21027;-56
2022/05/10 10:45:42;;;;;;;2.50;1.37;;;18.80;38.20;;;;;;1921096;75;21030;-56
2022/05/10 10:48:36;;;;;;;2.52;1.60;;;18.90;38.10;;;;;;1921990;75;21054;-56
2022/05/10 10:51:06;;;;;;;2.08;1.40;;;19.00;38.00;;;;;;1920859;75;21054;-58
2022/05/10 10:53:37;;;;;;;2.98;1.40;;;19.10;36.70;;;;;;1921794;75;21018;-57
2022/05/10 10:56:18;;;;;;;2.20;1.60;;;19.10;37.10;;;;;;1921752;75;21081;-57
2022/05/10 10:58:53;;;;;;;4.25;1.22;;;19.10;36.20;;;;;;1921779;75;21109;-57
2022/05/10 11:01:43;;;;;;;4.47;1.27;;;19.10;36.40;;;;;;1921925;74;21566;-57
2022/05/10 11:04:18;;;;;;;4.78;1.57;;;19.20;35.80;;;;;;1812715;75;21086;-56
2022/05/10 11:06:50;;;;;;;;;;;19.20;37.00;;;;;;1911541;75;21042;-57
2022/05/10 11:09:25;;;;;;;1.85;1.40;;;19.20;35.60;;;;;;1909052;75;20519;-57
2022/05/10 11:11:57;;;;;;;2.47;1.30;;;19.20;36.60;;;;;;1907593;75;21031;-57
2022/05/10 11:14:54;;;;;;;2.30;1.62;;;19.30;36.20;;;;;;1906142;75;21105;-57
2022/05/10 11:17:59;;;;;;;7.08;2.02;;;19.30;36.10;;;;;;1909098;75;21015;-58
2022/05/10 11:20:40;;;;;;;4.80;1.45;;;19.10;35.40;;;;;;1908626;75;21470;-57
2022/05/10 11:23:11;;;;;;;4.08;1.37;;;19.10;35.60;;;;;;1908981;75;21015;-57
2022/05/10 11:26:10;;;;;;;2.30;1.25;;;19.10;35.80;;;;;;1909014;75;21035;-57
2022/05/10 11:28:50;;;;;;;2.15;1.32;;;19.20;36.20;;;;;;1909124;75;21027;-57
2022/05/10 11:31:39;;;;;;;4.20;1.47;;;19.40;36.10;;;;;;1889440;75;21540;-56
2022/05/10 11:34:26;;;;;;;4.08;1.77;;;19.50;34.80;;;;;;1909078;75;21051;-56
2022/05/10 11:36:59;;;;;;;2.75;1.32;;;19.40;35.60;;;;;;1900643;75;21028;-56
2022/05/10 11:39:54;;;;;;;2.02;1.32;;;19.30;34.40;;;;;;1908896;75;21535;-56
2022/05/10 11:42:33;;;;;;;4.65;1.50;;;19.10;34.90;;;;;;1811927;79;21093;-56
2022/05/10 11:45:27;;;;;;;2.98;1.37;;;19.00;35.40;;;;;;1813208;79;21085;-56
2022/05/10 11:48:18;;;;;;;4.50;1.20;;;19.00;34.90;;;;;;1877023;75;21027;-57
2022/05/10 11:53:52;;;;;;;3.50;1.30;;;19.10;35.20;;;;;;1909023;75;21059;-57
2022/05/10 11:56:22;;;;;;;4.05;1.50;;;19.20;34.30;;;;;;1908355;75;21043;-57
2022/05/10 11:58:53;;;;;;;1.70;1.40;;;19.30;34.60;;;;;;1908874;75;21055;-57
2022/05/10 12:01:45;;;;;;;8.00;2.20;;;19.20;34.60;;;;;;1908848;75;21140;-57
2022/05/10 12:04:34;;;;;;;5.00;3.55;;;19.20;35.20;;;;;;1903873;75;21125;-57
2022/05/10 12:07:24;;;;;;;8.28;1.62;;;19.10;35.00;;;;;;1908574;75;21035;-57
2022/05/10 12:09:59;;;;;;;8.05;1.17;;;19.20;34.80;;;;;;1907839;75;21466;-56
2022/05/10 12:12:35;;;;;;;;;;;19.30;35.00;;;;;;1906630;75;21547;-57
2022/05/10 12:24:11;;;;;;;4.25;1.25;;;19.60;35.40;;;;;;1903743;75;21109;-57
2022/05/10 12:26:57;;;;;;;4.00;1.42;;;19.60;34.50;;;;;;1903768;75;21070;-57
2022/05/10 12:29:44;;;;;;;1.75;1.20;;;19.60;34.60;;;;;;1903882;75;21039;-56
2022/05/10 12:32:37;;;;;;;4.85;1.95;;;19.60;34.50;;;;;;1903901;75;21469;-57
2022/05/10 12:35:10;;;;;;;1.95;1.05;;;19.60;35.00;;;;;;1903900;75;21109;-57
2022/05/10 12:37:54;;;;;;;6.72;1.90;;;19.70;35.40;;;;;;1903873;75;21031;-57
2022/05/10 12:40:35;;;;;;;6.67;1.72;;;19.70;35.30;;;;;;1903758;75;21071;-56
2022/05/10 12:43:36;;;;;;;4.42;1.17;;;19.80;35.20;;;;;;1903754;75;20999;-57
2022/05/10 12:46:23;;;;;;;2.02;1.00;;;19.70;35.10;;;;;;1902858;75;21051;-56
2022/05/10 12:49:19;;;;;;;9.68;3.72;;;19.70;34.70;;;;;;1903637;75;21618;-56
2022/05/10 12:52:00;;;;;;;3.22;1.37;;;19.70;34.90;;;;;;1903389;75;21031;-56
2022/05/10 12:54:27;;;;;;;4.17;1.70;;;19.70;34.60;;;;;;1902880;75;21028;-57
2022/05/10 12:57:27;;;;;;;6.53;3.65;;;19.80;34.70;;;;;;1904038;75;21117;-56
2022/05/10 13:00:11;;;;;;;2.15;1.30;;;19.80;34.70;;;;;;1903780;75;21062;-56
2022/05/10 13:02:51;;;;;;;2.58;1.15;;;19.80;34.90;;;;;;1903763;75;21098;-56
2022/05/10 13:05:29;;;;;;;3.58;1.30;;;19.90;35.20;;;;;;1903926;75;21072;-56
2022/05/10 13:08:10;;;;;;;7.90;1.30;;;19.90;35.10;;;;;;1901663;75;21027;-56
2022/05/10 13:10:40;;;;;;;3.83;1.30;;;19.80;35.20;;;;;;1903252;75;21051;-56
2022/05/10 13:13:12;;;;;;;3.22;1.55;;;19.80;33.60;;;;;;1904027;75;21019;-56
2022/05/10 13:15:44;;;;;;;4.60;1.67;;;19.70;34.20;;;;;;1900865;75;21077;-56
2022/05/10 13:18:18;;;;;;;3.45;1.20;;;19.60;34.40;;;;;;1903978;75;21191;-56
2022/05/10 13:20:52;;;;;;;2.62;1.35;;;19.60;35.10;;;;;;1904143;75;20995;-56
2022/05/10 13:23:27;;;;;;;7.53;2.23;;;19.60;35.30;;;;;;1904188;75;21027;-56
2022/05/10 13:25:58;;;;;;;3.77;1.60;;;19.50;34.50;;;;;;1904225;75;21003;-56
2022/05/10 13:28:27;;;;;;;2.98;1.35;;;19.50;34.90;;;;;;1902866;75;21449;-56
2022/05/10 13:30:59;;;;;;;6.22;1.50;;;19.40;34.70;;;;;;1903996;75;21047;-57
2022/05/10 13:33:32;;;;;;;1.20;1.00;;;19.40;34.90;;;;;;1904232;75;21015;-56
2022/05/10 13:36:04;;;;;;;7.78;2.08;;;19.40;34.20;;;;;;1904088;74;21182;-57
2022/05/10 13:38:36;;;;;;;1.75;1.07;;;19.40;34.50;;;;;;1904085;75;21078;-57
2022/05/10 13:41:09;;;;;;;6.22;1.20;;;19.30;34.80;;;;;;1901504;75;21093;-57
2022/05/10 13:43:47;;;;;;;2.85;1.52;;;19.30;35.00;;;;;;1904049;75;21003;-57
2022/05/10 13:46:21;;;;;;;8.78;1.40;;;19.30;36.10;;;;;;1904068;75;21500;-57
2022/05/10 13:49:11;;;;;;;3.15;1.10;;;19.30;34.70;;;;;;1904040;75;21043;-57
2022/05/10 13:51:46;;;;;;;3.65;1.20;;;19.30;34.10;;;;;;1904186;74;21027;-57
2022/05/10 13:54:30;;;;;;;1.55;1.27;;;19.20;34.40;;;;;;1903143;75;21023;-58